sensor_id;sensor_type;location;lat;lon;timestamp;pressure;altitude;pressure_sealevel;temperature;humidity
67397;BME280;57728;50.448;18.824;2022-11-06T00:00:34;98252.03;;;6.45;80.48
67397;BME280;57728;50.448;18.824;2022-11-06T00:02:35;98256.09;;;6.47;80.55
67397;BME280;57728;50.448;18.824;2022-11-06T00:04:36;98244.31;;;6.48;80.53
67397;BME280;57728;50.448;18.824;2022-11-06T00:06:38;98247.56;;;6.50;80.60
67397;BME280;57728;50.448;18.824;2022-11-06T00:08:49;98243.03;;;6.51;80.20
67397;BME280;57728;50.448;18.824;2022-11-06T00:10:50;98244.88;;;6.50;80.52
67397;BME280;57728;50.448;18.824;2022-11-06T00:12:52;98245.59;;;6.46;80.26
67397;BME280;57728;50.448;18.824;2022-11-06T00:14:53;98249.66;;;6.48;80.07
67397;BME280;57728;50.448;18.824;2022-11-06T00:16:54;98252.09;;;6.50;80.12
67397;BME280;57728;50.448;18.824;2022-11-06T00:18:59;98258.28;;;6.50;80.40
67397;BME280;57728;50.448;18.824;2022-11-06T00:21:18;98254.53;;;6.51;79.98
67397;BME280;57728;50.448;18.824;2022-11-06T00:23:22;98252.66;;;6.52;80.30
67397;BME280;57728;50.448;18.824;2022-11-06T00:25:24;98260.94;;;6.50;80.06
67397;BME280;57728;50.448;18.824;2022-11-06T00:27:25;98261.97;;;6.49;80.08
67397;BME280;57728;50.448;18.824;2022-11-06T00:29:26;98259.31;;;6.49;79.87
67397;BME280;57728;50.448;18.824;2022-11-06T00:31:32;98249.66;;;6.48;79.97
67397;BME280;57728;50.448;18.824;2022-11-06T00:33:36;98251.22;;;6.44;80.04
67397;BME280;57728;50.448;18.824;2022-11-06T00:35:38;98244.50;;;6.41;80.21
67397;BME280;57728;50.448;18.824;2022-11-06T00:37:40;98256.03;;;6.42;80.09
67397;BME280;57728;50.448;18.824;2022-11-06T00:39:42;98254.38;;;6.41;80.18
67397;BME280;57728;50.448;18.824;2022-11-06T00:41:43;98250.09;;;6.40;80.19
67397;BME280;57728;50.448;18.824;2022-11-06T00:43:50;98255.72;;;6.38;80.34
67397;BME280;57728;50.448;18.824;2022-11-06T00:46:09;98259.69;;;6.36;80.15
67397;BME280;57728;50.448;18.824;2022-11-06T00:48:12;98259.94;;;6.34;80.16
67397;BME280;57728;50.448;18.824;2022-11-06T00:50:14;98267.38;;;6.32;80.23
67397;BME280;57728;50.448;18.824;2022-11-06T00:52:15;98270.31;;;6.31;80.17
67397;BME280;57728;50.448;18.824;2022-11-06T00:54:16;98266.84;;;6.30;80.44
67397;BME280;57728;50.448;18.824;2022-11-06T00:56:19;98270.53;;;6.29;80.47
67397;BME280;57728;50.448;18.824;2022-11-06T00:58:20;98266.59;;;6.32;80.48
67397;BME280;57728;50.448;18.824;2022-11-06T01:00:21;98268.19;;;6.33;80.03
67397;BME280;57728;50.448;18.824;2022-11-06T01:02:23;98265.28;;;6.34;80.03
67397;BME280;57728;50.448;18.824;2022-11-06T01:04:25;98270.06;;;6.32;80.11
67397;BME280;57728;50.448;18.824;2022-11-06T01:06:29;98274.03;;;6.30;80.04
67397;BME280;57728;50.448;18.824;2022-11-06T01:08:32;98273.97;;;6.25;80.19
67397;BME280;57728;50.448;18.824;2022-11-06T01:10:35;98271.78;;;6.22;80.14
67397;BME280;57728;50.448;18.824;2022-11-06T01:12:37;98269.03;;;6.16;79.92
67397;BME280;57728;50.448;18.824;2022-11-06T01:14:40;98265.56;;;6.16;80.22
67397;BME280;57728;50.448;18.824;2022-11-06T01:16:42;98270.91;;;6.16;80.57
67397;BME280;57728;50.448;18.824;2022-11-06T01:18:45;98265.00;;;6.14;80.22
67397;BME280;57728;50.448;18.824;2022-11-06T01:20:47;98274.16;;;6.18;80.05
67397;BME280;57728;50.448;18.824;2022-11-06T01:22:48;98272.53;;;6.17;79.90
67397;BME280;57728;50.448;18.824;2022-11-06T01:24:50;98274.97;;;6.19;80.00
67397;BME280;57728;50.448;18.824;2022-11-06T01:26:52;98273.09;;;6.19;79.86
67397;BME280;57728;50.448;18.824;2022-11-06T01:28:55;98269.84;;;6.17;79.99
67397;BME280;57728;50.448;18.824;2022-11-06T01:31:07;98265.81;;;6.14;79.76
67397;BME280;57728;50.448;18.824;2022-11-06T01:33:10;98259.66;;;6.14;79.89
67397;BME280;57728;50.448;18.824;2022-11-06T01:35:11;98262.88;;;6.16;79.58
67397;BME280;57728;50.448;18.824;2022-11-06T01:37:12;98266.63;;;6.15;79.75
67397;BME280;57728;50.448;18.824;2022-11-06T01:39:15;98252.66;;;6.13;79.67
67397;BME280;57728;50.448;18.824;2022-11-06T01:41:22;98264.75;;;6.15;79.44
67397;BME280;57728;50.448;18.824;2022-11-06T01:43:46;98261.00;;;6.16;79.27
67397;BME280;57728;50.448;18.824;2022-11-06T01:45:51;98264.75;;;6.15;79.32
67397;BME280;57728;50.448;18.824;2022-11-06T01:47:54;98263.13;;;6.14;79.55
67397;BME280;57728;50.448;18.824;2022-11-06T01:50:00;98267.91;;;6.12;79.04
67397;BME280;57728;50.448;18.824;2022-11-06T01:52:10;98264.03;;;6.03;79.61
67397;BME280;57728;50.448;18.824;2022-11-06T01:54:15;98265.31;;;6.01;79.33
67397;BME280;57728;50.448;18.824;2022-11-06T01:56:20;98264.19;;;5.97;79.64
67397;BME280;57728;50.448;18.824;2022-11-06T01:58:27;98266.81;;;5.91;79.71
67397;BME280;57728;50.448;18.824;2022-11-06T02:00:32;98270.53;;;5.90;79.98
67397;BME280;57728;50.448;18.824;2022-11-06T02:02:35;98264.06;;;5.86;79.69
67397;BME280;57728;50.448;18.824;2022-11-06T02:04:44;98260.56;;;5.86;79.84
67397;BME280;57728;50.448;18.824;2022-11-06T02:06:48;98269.06;;;5.83;79.80
67397;BME280;57728;50.448;18.824;2022-11-06T02:08:50;98265.00;;;5.80;79.79
67397;BME280;57728;50.448;18.824;2022-11-06T02:10:52;98271.91;;;5.76;79.80
67397;BME280;57728;50.448;18.824;2022-11-06T02:18:00;98276.44;;;5.59;79.93
67397;BME280;57728;50.448;18.824;2022-11-06T02:28:37;98273.66;;;5.37;80.95
67397;BME280;57728;50.448;18.824;2022-11-06T02:30:46;98253.84;;;5.21;80.77
67397;BME280;57728;50.448;18.824;2022-11-06T02:33:05;98275.44;;;5.31;81.17
67397;BME280;57728;50.448;18.824;2022-11-06T02:35:24;98274.63;;;5.31;81.43
67397;BME280;57728;50.448;18.824;2022-11-06T02:37:35;98274.63;;;5.31;81.27
67397;BME280;57728;50.448;18.824;2022-11-06T02:39:44;98271.81;;;5.37;81.51
67397;BME280;57728;50.448;18.824;2022-11-06T02:41:53;98267.34;;;5.43;80.99
67397;BME280;57728;50.448;18.824;2022-11-06T02:44:02;98252.53;;;5.35;80.42
67397;BME280;57728;50.448;18.824;2022-11-06T02:46:14;98272.13;;;5.41;80.16
67397;BME280;57728;50.448;18.824;2022-11-06T02:48:23;98273.31;;;5.33;79.86
67397;BME280;57728;50.448;18.824;2022-11-06T02:50:40;98279.03;;;5.25;79.74
67397;BME280;57728;50.448;18.824;2022-11-06T02:53:01;98276.28;;;5.20;79.86
67397;BME280;57728;50.448;18.824;2022-11-06T02:55:11;98280.81;;;5.20;79.78
67397;BME280;57728;50.448;18.824;2022-11-06T02:57:24;98279.69;;;5.15;79.68
67397;BME280;57728;50.448;18.824;2022-11-06T02:59:39;98281.28;;;5.16;79.55
67397;BME280;57728;50.448;18.824;2022-11-06T03:01:59;98283.53;;;5.08;79.05
67397;BME280;57728;50.448;18.824;2022-11-06T03:04:53;98284.16;;;4.98;78.85
67397;BME280;57728;50.448;18.824;2022-11-06T03:06:44;98289.38;;;4.93;78.78
67397;BME280;57728;50.448;18.824;2022-11-06T03:08:57;98294.06;;;4.86;78.93
67397;BME280;57728;50.448;18.824;2022-11-06T03:16:54;98274.38;;;4.75;79.47
67397;BME280;57728;50.448;18.824;2022-11-06T03:19:05;98280.88;;;4.67;79.04
67397;BME280;57728;50.448;18.824;2022-11-06T03:23:34;98292.50;;;4.61;79.37
67397;BME280;57728;50.448;18.824;2022-11-06T03:26:09;98292.63;;;4.55;79.32
67397;BME280;57728;50.448;18.824;2022-11-06T03:30:41;98297.53;;;4.46;79.31
67397;BME280;57728;50.448;18.824;2022-11-06T03:33:02;98299.84;;;4.42;79.63
67397;BME280;57728;50.448;18.824;2022-11-06T03:37:35;98300.06;;;4.29;79.37
67397;BME280;57728;50.448;18.824;2022-11-06T03:39:49;98300.88;;;4.30;80.17
67397;BME280;57728;50.448;18.824;2022-11-06T03:42:03;98296.09;;;4.32;79.81
67397;BME280;57728;50.448;18.824;2022-11-06T03:44:13;98304.56;;;4.29;80.17
67397;BME280;57728;50.448;18.824;2022-11-06T03:46:22;98304.81;;;4.27;79.85
67397;BME280;57728;50.448;18.824;2022-11-06T03:48:49;98308.53;;;4.26;79.96
67397;BME280;57728;50.448;18.824;2022-11-06T03:51:09;98302.38;;;4.26;79.83
67397;BME280;57728;50.448;18.824;2022-11-06T03:53:28;98306.91;;;4.25;80.03
67397;BME280;57728;50.448;18.824;2022-11-06T03:56:12;98308.97;;;4.23;79.85
67397;BME280;57728;50.448;18.824;2022-11-06T03:58:29;98319.66;;;4.23;80.36
67397;BME280;57728;50.448;18.824;2022-11-06T04:00:40;98317.44;;;4.20;79.98
67397;BME280;57728;50.448;18.824;2022-11-06T04:02:51;98319.75;;;4.16;79.89
67397;BME280;57728;50.448;18.824;2022-11-06T04:05:12;98315.38;;;4.10;79.87
67397;BME280;57728;50.448;18.824;2022-11-06T04:07:22;98317.44;;;4.08;80.01
67397;BME280;57728;50.448;18.824;2022-11-06T04:09:33;98315.38;;;4.10;80.18
67397;BME280;57728;50.448;18.824;2022-11-06T04:12:03;98313.59;;;4.04;79.58
67397;BME280;57728;50.448;18.824;2022-11-06T04:14:28;98322.66;;;4.03;79.61
67397;BME280;57728;50.448;18.824;2022-11-06T04:16:39;98318.81;;;3.99;79.97
67397;BME280;57728;50.448;18.824;2022-11-06T04:18:44;98316.16;;;3.99;80.15
67397;BME280;57728;50.448;18.824;2022-11-06T04:20:53;98315.91;;;4.01;79.98
67397;BME280;57728;50.448;18.824;2022-11-06T04:23:47;98317.22;;;3.98;80.10
67397;BME280;57728;50.448;18.824;2022-11-06T04:26:25;98320.44;;;4.00;80.39
67397;BME280;57728;50.448;18.824;2022-11-06T04:28:47;98312.22;;;4.02;80.21
67397;BME280;57728;50.448;18.824;2022-11-06T04:33:33;98318.13;;;4.04;79.87
67397;BME280;57728;50.448;18.824;2022-11-06T04:38:50;98312.44;;;4.00;79.70
67397;BME280;57728;50.448;18.824;2022-11-06T04:43:51;98310.94;;;4.04;80.03
67397;BME280;57728;50.448;18.824;2022-11-06T04:46:00;98318.28;;;4.09;79.61
67397;BME280;57728;50.448;18.824;2022-11-06T04:48:05;98316.75;;;4.13;79.57
67397;BME280;57728;50.448;18.824;2022-11-06T04:50:12;98311.88;;;4.10;79.21
67397;BME280;57728;50.448;18.824;2022-11-06T04:52:22;98311.28;;;4.08;79.14
67397;BME280;57728;50.448;18.824;2022-11-06T04:54:26;98309.22;;;4.10;79.46
67397;BME280;57728;50.448;18.824;2022-11-06T04:56:30;98295.88;;;4.10;78.79
67397;BME280;57728;50.448;18.824;2022-11-06T04:58:34;98297.50;;;4.11;78.63
67397;BME280;57728;50.448;18.824;2022-11-06T05:00:40;98302.50;;;4.07;78.29
67397;BME280;57728;50.448;18.824;2022-11-06T05:02:46;98306.66;;;4.03;78.34
67397;BME280;57728;50.448;18.824;2022-11-06T05:04:48;98310.59;;;4.01;78.42
67397;BME280;57728;50.448;18.824;2022-11-06T05:06:49;98295.88;;;3.98;78.82
67397;BME280;57728;50.448;18.824;2022-11-06T05:08:50;98305.25;;;4.01;78.51
67397;BME280;57728;50.448;18.824;2022-11-06T05:10:52;98318.59;;;4.01;78.50
67397;BME280;57728;50.448;18.824;2022-11-06T05:12:53;98320.22;;;4.02;78.25
67397;BME280;57728;50.448;18.824;2022-11-06T05:14:54;98314.91;;;4.02;77.97
67397;BME280;57728;50.448;18.824;2022-11-06T05:16:56;98312.69;;;3.99;77.79
67397;BME280;57728;50.448;18.824;2022-11-06T05:18:57;98307.81;;;3.95;77.35
67397;BME280;57728;50.448;18.824;2022-11-06T05:20:59;98312.44;;;3.88;77.31
67397;BME280;57728;50.448;18.824;2022-11-06T05:23:21;98307.34;;;3.87;77.54
67397;BME280;57728;50.448;18.824;2022-11-06T05:25:22;98305.59;;;3.81;77.44
67397;BME280;57728;50.448;18.824;2022-11-06T05:27:24;98320.88;;;3.74;77.27
67397;BME280;57728;50.448;18.824;2022-11-06T05:29:26;98314.84;;;3.66;77.75
67397;BME280;57728;50.448;18.824;2022-11-06T05:31:27;98321.66;;;3.62;77.55
67397;BME280;57728;50.448;18.824;2022-11-06T05:33:28;98310.88;;;3.57;77.72
67397;BME280;57728;50.448;18.824;2022-11-06T05:35:31;98319.69;;;3.58;77.95
67397;BME280;57728;50.448;18.824;2022-11-06T05:37:32;98310.66;;;3.59;78.00
67397;BME280;57728;50.448;18.824;2022-11-06T05:39:34;98307.97;;;3.59;77.79
67397;BME280;57728;50.448;18.824;2022-11-06T05:41:35;98303.69;;;3.58;78.31
67397;BME280;57728;50.448;18.824;2022-11-06T05:43:37;98318.19;;;3.62;77.72
67397;BME280;57728;50.448;18.824;2022-11-06T05:45:38;98311.47;;;3.59;77.49
67397;BME280;57728;50.448;18.824;2022-11-06T05:47:40;98316.22;;;3.57;77.30
67397;BME280;57728;50.448;18.824;2022-11-06T05:49:41;98324.91;;;3.53;77.57
67397;BME280;57728;50.448;18.824;2022-11-06T05:51:42;98319.41;;;3.48;77.42
67397;BME280;57728;50.448;18.824;2022-11-06T05:53:44;98326.03;;;3.45;78.48
67397;BME280;57728;50.448;18.824;2022-11-06T05:55:46;98328.00;;;3.50;78.50
67397;BME280;57728;50.448;18.824;2022-11-06T05:57:47;98322.69;;;3.50;77.98
67397;BME280;57728;50.448;18.824;2022-11-06T05:59:49;98326.38;;;3.49;77.92
67397;BME280;57728;50.448;18.824;2022-11-06T06:01:50;98320.47;;;3.47;77.61
67397;BME280;57728;50.448;18.824;2022-11-06T06:03:51;98329.50;;;3.45;77.74
67397;BME280;57728;50.448;18.824;2022-11-06T06:05:53;98335.41;;;3.48;77.87
67397;BME280;57728;50.448;18.824;2022-11-06T06:07:55;98329.06;;;3.49;77.93
67397;BME280;57728;50.448;18.824;2022-11-06T06:09:56;98337.16;;;3.54;77.50
67397;BME280;57728;50.448;18.824;2022-11-06T06:11:58;98338.69;;;3.61;77.81
67397;BME280;57728;50.448;18.824;2022-11-06T06:13:59;98339.28;;;3.63;76.91
67397;BME280;57728;50.448;18.824;2022-11-06T06:16:01;98334.19;;;3.62;77.10
67397;BME280;57728;50.448;18.824;2022-11-06T06:18:05;98339.72;;;3.60;76.70
67397;BME280;57728;50.448;18.824;2022-11-06T06:20:07;98341.00;;;3.58;77.03
67397;BME280;57728;50.448;18.824;2022-11-06T06:22:09;98354.31;;;3.58;77.33
67397;BME280;57728;50.448;18.824;2022-11-06T06:24:11;98350.16;;;3.62;77.14
67397;BME280;57728;50.448;18.824;2022-11-06T06:26:12;98349.72;;;3.65;76.75
67397;BME280;57728;50.448;18.824;2022-11-06T06:28:13;98340.69;;;3.66;76.78
67397;BME280;57728;50.448;18.824;2022-11-06T06:30:15;98354.47;;;3.75;76.79
67397;BME280;57728;50.448;18.824;2022-11-06T06:32:17;98354.25;;;3.76;76.57
67397;BME280;57728;50.448;18.824;2022-11-06T06:34:18;98363.41;;;3.80;76.04
67397;BME280;57728;50.448;18.824;2022-11-06T06:36:20;98362.16;;;3.83;75.68
67397;BME280;57728;50.448;18.824;2022-11-06T06:38:21;98362.38;;;3.81;75.79
67397;BME280;57728;50.448;18.824;2022-11-06T06:40:22;98368.72;;;3.80;76.03
67397;BME280;57728;50.448;18.824;2022-11-06T06:42:27;98364.44;;;3.79;76.02
67397;BME280;57728;50.448;18.824;2022-11-06T06:44:29;98363.66;;;3.79;76.44
67397;BME280;57728;50.448;18.824;2022-11-06T06:46:30;98372.00;;;3.82;76.59
67397;BME280;57728;50.448;18.824;2022-11-06T06:48:32;98365.97;;;3.87;76.12
67397;BME280;57728;50.448;18.824;2022-11-06T06:50:33;98362.88;;;3.90;75.87
67397;BME280;57728;50.448;18.824;2022-11-06T06:52:34;98362.63;;;3.91;76.14
67397;BME280;57728;50.448;18.824;2022-11-06T06:54:36;98359.88;;;3.98;76.18
67397;BME280;57728;50.448;18.824;2022-11-06T06:56:38;98366.72;;;4.06;75.77
67397;BME280;57728;50.448;18.824;2022-11-06T06:58:39;98367.88;;;4.10;74.94
67397;BME280;57728;50.448;18.824;2022-11-06T07:00:41;98362.41;;;4.16;75.71
67397;BME280;57728;50.448;18.824;2022-11-06T07:02:42;98368.00;;;4.27;75.63
67397;BME280;57728;50.448;18.824;2022-11-06T07:04:43;98357.56;;;4.37;75.63
67397;BME280;57728;50.448;18.824;2022-11-06T07:06:45;98364.88;;;4.41;75.08
67397;BME280;57728;50.448;18.824;2022-11-06T07:08:46;98363.75;;;4.49;75.35
67397;BME280;57728;50.448;18.824;2022-11-06T07:10:47;98362.56;;;4.57;75.02
67397;BME280;57728;50.448;18.824;2022-11-06T07:12:49;98356.06;;;4.64;75.12
67397;BME280;57728;50.448;18.824;2022-11-06T07:14:50;98362.69;;;4.74;75.04
67397;BME280;57728;50.448;18.824;2022-11-06T07:16:51;98355.03;;;4.77;74.94
67397;BME280;57728;50.448;18.824;2022-11-06T07:18:53;98365.00;;;4.93;74.56
67397;BME280;57728;50.448;18.824;2022-11-06T07:20:55;98362.03;;;5.07;75.03
67397;BME280;57728;50.448;18.824;2022-11-06T07:22:56;98360.50;;;5.23;74.54
67397;BME280;57728;50.448;18.824;2022-11-06T07:24:58;98363.69;;;5.36;74.43
67397;BME280;57728;50.448;18.824;2022-11-06T07:27:00;98359.91;;;5.49;74.66
67397;BME280;57728;50.448;18.824;2022-11-06T07:29:01;98355.44;;;5.66;74.26
67397;BME280;57728;50.448;18.824;2022-11-06T07:31:06;98364.53;;;5.82;73.99
67397;BME280;57728;50.448;18.824;2022-11-06T07:33:08;98367.53;;;6.03;73.74
67397;BME280;57728;50.448;18.824;2022-11-06T07:35:09;98361.94;;;6.21;73.31
67397;BME280;57728;50.448;18.824;2022-11-06T07:37:11;98360.69;;;6.46;73.29
67397;BME280;57728;50.448;18.824;2022-11-06T07:39:12;98362.63;;;6.67;72.85
67397;BME280;57728;50.448;18.824;2022-11-06T07:41:13;98369.22;;;6.98;71.99
67397;BME280;57728;50.448;18.824;2022-11-06T07:43:15;98367.97;;;7.28;71.17
67397;BME280;57728;50.448;18.824;2022-11-06T07:45:16;98365.47;;;7.70;70.05
67397;BME280;57728;50.448;18.824;2022-11-06T07:47:18;98370.75;;;8.19;68.16
67397;BME280;57728;50.448;18.824;2022-11-06T07:49:20;98372.75;;;8.71;66.35
67397;BME280;57728;50.448;18.824;2022-11-06T07:51:21;98374.38;;;9.25;64.94
67397;BME280;57728;50.448;18.824;2022-11-06T07:53:23;98365.38;;;9.72;63.28
67397;BME280;57728;50.448;18.824;2022-11-06T07:55:25;98367.28;;;10.12;62.82
67397;BME280;57728;50.448;18.824;2022-11-06T07:57:26;98367.81;;;10.55;61.09
67397;BME280;57728;50.448;18.824;2022-11-06T07:59:27;98367.78;;;10.80;60.01
67397;BME280;57728;50.448;18.824;2022-11-06T08:01:30;98368.25;;;11.03;59.10
67397;BME280;57728;50.448;18.824;2022-11-06T08:03:31;98374.63;;;11.32;57.97
67397;BME280;57728;50.448;18.824;2022-11-06T08:05:34;98376.38;;;11.52;57.13
67397;BME280;57728;50.448;18.824;2022-11-06T08:07:36;98379.53;;;11.75;56.80
67397;BME280;57728;50.448;18.824;2022-11-06T08:09:37;98383.31;;;11.79;55.90
67397;BME280;57728;50.448;18.824;2022-11-06T08:11:38;98379.56;;;11.70;55.36
67397;BME280;57728;50.448;18.824;2022-11-06T08:13:40;98386.16;;;11.43;55.73
67397;BME280;57728;50.448;18.824;2022-11-06T08:15:42;98381.41;;;11.25;55.56
67397;BME280;57728;50.448;18.824;2022-11-06T08:17:43;98383.34;;;11.09;56.03
67397;BME280;57728;50.448;18.824;2022-11-06T08:19:45;98381.50;;;10.89;56.43
67397;BME280;57728;50.448;18.824;2022-11-06T08:21:46;98386.13;;;10.68;57.13
67397;BME280;57728;50.448;18.824;2022-11-06T08:23:48;98381.28;;;10.40;57.62
67397;BME280;57728;50.448;18.824;2022-11-06T08:25:53;98383.44;;;10.22;58.01
67397;BME280;57728;50.448;18.824;2022-11-06T08:27:57;98374.56;;;10.17;58.63
67397;BME280;57728;50.448;18.824;2022-11-06T08:29:59;98365.66;;;10.21;58.19
67397;BME280;57728;50.448;18.824;2022-11-06T08:32:01;98365.69;;;10.16;58.44
67397;BME280;57728;50.448;18.824;2022-11-06T08:34:02;98362.44;;;10.40;59.17
67397;BME280;57728;50.448;18.824;2022-11-06T08:36:05;98365.56;;;11.03;58.04
67397;BME280;57728;50.448;18.824;2022-11-06T08:38:08;98364.66;;;11.82;56.72
67397;BME280;57728;50.448;18.824;2022-11-06T08:40:10;98351.25;;;12.65;54.73
67397;BME280;57728;50.448;18.824;2022-11-06T08:42:13;98358.69;;;13.50;53.12
67397;BME280;57728;50.448;18.824;2022-11-06T08:44:15;98351.38;;;14.26;51.29
67397;BME280;57728;50.448;18.824;2022-11-06T08:46:16;98349.97;;;14.89;50.20
67397;BME280;57728;50.448;18.824;2022-11-06T08:48:17;98351.16;;;15.51;48.78
67397;BME280;57728;50.448;18.824;2022-11-06T08:50:21;98362.25;;;16.14;47.45
67397;BME280;57728;50.448;18.824;2022-11-06T08:52:22;98358.72;;;16.58;46.02
67397;BME280;57728;50.448;18.824;2022-11-06T08:54:23;98347.56;;;16.99;45.01
67397;BME280;57728;50.448;18.824;2022-11-06T08:56:25;98347.84;;;17.38;44.42
67397;BME280;57728;50.448;18.824;2022-11-06T08:58:26;98349.78;;;17.46;43.79
67397;BME280;57728;50.448;18.824;2022-11-06T09:00:27;98352.50;;;17.37;43.21
67397;BME280;57728;50.448;18.824;2022-11-06T09:02:30;98346.41;;;17.32;42.88
67397;BME280;57728;50.448;18.824;2022-11-06T09:04:31;98345.97;;;17.07;43.23
67397;BME280;57728;50.448;18.824;2022-11-06T09:06:33;98344.69;;;16.65;43.39
67397;BME280;57728;50.448;18.824;2022-11-06T09:08:35;98362.63;;;16.21;44.29
67397;BME280;57728;50.448;18.824;2022-11-06T09:10:38;98359.19;;;15.93;45.23
67397;BME280;57728;50.448;18.824;2022-11-06T09:12:40;98354.03;;;15.69;45.49
67397;BME280;57728;50.448;18.824;2022-11-06T09:14:42;98344.47;;;15.35;45.92
67397;BME280;57728;50.448;18.824;2022-11-06T09:16:43;98344.53;;;15.30;46.51
67397;BME280;57728;50.448;18.824;2022-11-06T09:18:45;98348.25;;;15.48;46.72
67397;BME280;57728;50.448;18.824;2022-11-06T09:20:46;98351.19;;;15.88;46.01
67397;BME280;57728;50.448;18.824;2022-11-06T09:22:48;98348.19;;;16.34;45.35
67397;BME280;57728;50.448;18.824;2022-11-06T09:24:50;98346.84;;;16.85;44.18
67397;BME280;57728;50.448;18.824;2022-11-06T09:26:52;98334.56;;;17.28;43.34
67397;BME280;57728;50.448;18.824;2022-11-06T09:28:53;98337.81;;;17.73;42.66
67397;BME280;57728;50.448;18.824;2022-11-06T09:30:55;98345.69;;;18.18;41.73
67397;BME280;57728;50.448;18.824;2022-11-06T09:32:59;98341.41;;;18.64;41.14
67397;BME280;57728;50.448;18.824;2022-11-06T09:35:02;98340.81;;;19.05;40.07
67397;BME280;57728;50.448;18.824;2022-11-06T09:37:04;98342.09;;;19.37;38.88
67397;BME280;57728;50.448;18.824;2022-11-06T09:39:05;98337.84;;;19.49;38.37
67397;BME280;57728;50.448;18.824;2022-11-06T09:41:19;98330.47;;;19.70;37.59
67397;BME280;57728;50.448;18.824;2022-11-06T09:46:39;98332.75;;;20.55;36.38
67397;BME280;57728;50.448;18.824;2022-11-06T09:48:49;98331.69;;;20.93;35.64
67397;BME280;57728;50.448;18.824;2022-11-06T09:51:27;98331.13;;;21.24;34.86
67397;BME280;57728;50.448;18.824;2022-11-06T09:53:38;98328.19;;;21.42;34.54
67397;BME280;57728;50.448;18.824;2022-11-06T09:55:47;98325.06;;;21.68;33.94
67397;BME280;57728;50.448;18.824;2022-11-06T09:57:56;98320.97;;;21.89;33.24
67397;BME280;57728;50.448;18.824;2022-11-06T10:00:06;98316.06;;;21.95;33.63
67397;BME280;57728;50.448;18.824;2022-11-06T10:02:39;98322.00;;;22.25;33.29
67397;BME280;57728;50.448;18.824;2022-11-06T10:07:27;98318.34;;;21.53;32.64
67397;BME280;57728;50.448;18.824;2022-11-06T10:09:30;98321.63;;;20.73;33.73
67397;BME280;57728;50.448;18.824;2022-11-06T10:12:06;98323.31;;;19.78;35.09
67397;BME280;57728;50.448;18.824;2022-11-06T10:17:25;98315.22;;;19.39;36.23
67397;BME280;57728;50.448;18.824;2022-11-06T10:19:38;98312.41;;;18.98;36.62
67397;BME280;57728;50.448;18.824;2022-11-06T10:26:38;98317.69;;;16.46;40.59
67397;BME280;57728;50.448;18.824;2022-11-06T10:35:57;98312.09;;;15.97;43.68
67397;BME280;57728;50.448;18.824;2022-11-06T10:38:21;98303.00;;;15.80;43.61
67397;BME280;57728;50.448;18.824;2022-11-06T10:40:30;98305.72;;;15.80;44.28
67397;BME280;57728;50.448;18.824;2022-11-06T10:42:36;98307.78;;;16.50;45.22
67397;BME280;57728;50.448;18.824;2022-11-06T10:44:47;98299.00;;;17.33;42.46
67397;BME280;57728;50.448;18.824;2022-11-06T10:47:03;98290.00;;;18.19;40.69
67397;BME280;57728;50.448;18.824;2022-11-06T10:55:42;98286.78;;;20.61;36.35
67397;BME280;57728;50.448;18.824;2022-11-06T10:57:41;98282.06;;;21.19;33.98
67397;BME280;57728;50.448;18.824;2022-11-06T10:59:52;98274.28;;;21.46;33.73
67397;BME280;57728;50.448;18.824;2022-11-06T11:01:54;98277.72;;;21.83;33.16
67397;BME280;57728;50.448;18.824;2022-11-06T11:03:55;98276.63;;;22.28;32.31
67397;BME280;57728;50.448;18.824;2022-11-06T11:05:58;98269.19;;;22.60;31.57
67397;BME280;57728;50.448;18.824;2022-11-06T11:07:59;98269.75;;;22.97;30.97
67397;BME280;57728;50.448;18.824;2022-11-06T11:12:27;98255.25;;;23.51;30.43
67397;BME280;57728;50.448;18.824;2022-11-06T11:14:31;98252.03;;;23.84;29.77
67397;BME280;57728;50.448;18.824;2022-11-06T11:16:36;98253.59;;;24.05;28.98
67397;BME280;57728;50.448;18.824;2022-11-06T11:18:40;98251.84;;;24.36;28.72
67397;BME280;57728;50.448;18.824;2022-11-06T11:20:49;98243.50;;;24.55;27.04
67397;BME280;57728;50.448;18.824;2022-11-06T11:23:19;98247.53;;;24.61;26.39
67397;BME280;57728;50.448;18.824;2022-11-06T11:25:24;98237.44;;;24.69;25.81
67397;BME280;57728;50.448;18.824;2022-11-06T11:27:28;98243.66;;;24.39;26.42
67397;BME280;57728;50.448;18.824;2022-11-06T11:29:45;98239.59;;;24.56;27.32
67397;BME280;57728;50.448;18.824;2022-11-06T11:32:03;98238.69;;;24.75;26.76
67397;BME280;57728;50.448;18.824;2022-11-06T11:34:16;98239.88;;;24.97;26.23
67397;BME280;57728;50.448;18.824;2022-11-06T11:36:20;98237.53;;;25.25;26.97
67397;BME280;57728;50.448;18.824;2022-11-06T11:38:24;98229.56;;;25.50;26.31
67397;BME280;57728;50.448;18.824;2022-11-06T11:40:32;98226.34;;;25.75;25.26
67397;BME280;57728;50.448;18.824;2022-11-06T11:42:36;98221.28;;;25.77;24.89
67397;BME280;57728;50.448;18.824;2022-11-06T11:44:38;98235.41;;;25.72;24.52
67397;BME280;57728;50.448;18.824;2022-11-06T11:46:53;98220.47;;;25.76;24.63
67397;BME280;57728;50.448;18.824;2022-11-06T11:48:56;98224.38;;;25.75;24.48
67397;BME280;57728;50.448;18.824;2022-11-06T11:51:33;98218.28;;;25.93;24.10
67397;BME280;57728;50.448;18.824;2022-11-06T11:53:41;98220.91;;;26.19;23.35
67397;BME280;57728;50.448;18.824;2022-11-06T11:55:46;98217.13;;;26.31;23.15
67397;BME280;57728;50.448;18.824;2022-11-06T11:57:54;98215.94;;;26.28;23.04
67397;BME280;57728;50.448;18.824;2022-11-06T12:00:02;98214.31;;;26.27;22.69
67397;BME280;57728;50.448;18.824;2022-11-06T12:02:29;98206.28;;;26.15;22.47
67397;BME280;57728;50.448;18.824;2022-11-06T12:04:43;98212.88;;;26.03;21.91
67397;BME280;57728;50.448;18.824;2022-11-06T12:06:52;98204.81;;;25.88;22.67
67397;BME280;57728;50.448;18.824;2022-11-06T12:08:57;98201.34;;;25.00;22.91
67397;BME280;57728;50.448;18.824;2022-11-06T12:11:04;98211.44;;;24.43;24.35